Time;durP1;ratioP1;P1;durP2;ratioP2;P2;SDS_P1;SDS_P2;PMS_P1;PMS_P2;Temp;Humidity;BMP_temperature;BMP_pressure;BME280_temperature;BME280_humidity;BME280_pressure;Samples;Min_cycle;Max_cycle;Signal;HPM_P1;HPM_P2
2021/03/21 00:00:33;;;;;;;3.47;1.70;;;;;;;;;;13035189;22;20173;-78
2021/03/21 00:05:35;;;;;;;2.20;1.60;;;;;;;;;;13017420;22;20197;-78
2021/03/21 00:10:37;;;;;;;2.10;1.70;;;;;;;;;;13033317;22;20180;-78
2021/03/21 00:15:40;;;;;;;1.80;1.50;;;;;;;;;;13036597;22;20204;-78
2021/03/21 00:20:43;;;;;;;3.20;1.87;;;;;;;;;;13034548;22;20166;-78
2021/03/21 00:25:45;;;;;;;4.10;1.80;;;;;;;;;;13033576;22;20971;-78
2021/03/21 00:30:49;;;;;;;3.40;1.63;;;;;;;;;;13036486;22;20497;-78
2021/03/21 00:35:51;;;;;;;1.77;1.67;;;;;;;;;;13013903;22;20173;-78
2021/03/21 00:40:54;;;;;;;2.23;1.67;;;;;;;;;;13030952;22;20430;-78
2021/03/21 00:45:57;;;;;;;2.30;1.60;;;;;;;;;;13035478;22;20217;-78
2021/03/21 00:50:59;;;;;;;2.00;1.50;;;;;;;;;;13033635;22;20181;-78
2021/03/21 00:56:01;;;;;;;1.87;1.60;;;;;;;;;;13032436;22;20265;-77
2021/03/21 01:01:04;;;;;;;1.77;1.63;;;;;;;;;;13032833;22;20182;-78
2021/03/21 01:06:08;;;;;;;2.07;1.67;;;;;;;;;;13033531;22;20529;-78
2021/03/21 01:11:18;;;;;;;1.83;1.60;;;;;;;;;;13010282;22;20212;-78
2021/03/21 01:16:22;;;;;;;2.00;1.70;;;;;;;;;;13034510;22;20483;-78
2021/03/21 01:21:25;;;;;;;1.93;1.73;;;;;;;;;;13035487;22;20658;-78
2021/03/21 01:26:28;;;;;;;3.07;2.20;;;;;;;;;;13009142;22;20288;-78
2021/03/21 01:31:31;;;;;;;2.30;1.80;;;;;;;;;;13015850;22;20205;-78
2021/03/21 01:36:34;;;;;;;2.50;2.00;;;;;;;;;;13030931;22;20184;-77
2021/03/21 01:41:37;;;;;;;3.47;2.07;;;;;;;;;;13031503;22;20185;-78
2021/03/21 01:46:44;;;;;;;2.73;2.03;;;;;;;;;;13011755;22;20182;-78
2021/03/21 01:51:46;;;;;;;3.47;2.30;;;;;;;;;;13036030;22;20544;-77
2021/03/21 01:56:48;;;;;;;2.70;2.27;;;;;;;;;;13028495;22;20467;-78
2021/03/21 02:01:52;;;;;;;3.20;2.27;;;;;;;;;;13035893;22;20658;-78
2021/03/21 02:07:01;;;;;;;3.17;2.47;;;;;;;;;;13035257;22;20180;-78
2021/03/21 02:12:11;;;;;;;3.93;2.80;;;;;;;;;;13039195;22;20658;-79
2021/03/21 02:17:18;;;;;;;4.17;2.80;;;;;;;;;;13038203;22;20335;-78
2021/03/21 02:22:23;;;;;;;5.73;3.47;;;;;;;;;;13036457;22;20514;-77
2021/03/21 02:27:36;;;;;;;4.90;3.57;;;;;;;;;;13039457;22;20182;-77
2021/03/21 02:32:43;;;;;;;5.10;3.77;;;;;;;;;;13037886;22;20532;-77
2021/03/21 02:37:47;;;;;;;4.60;3.80;;;;;;;;;;13038120;22;20516;-78
2021/03/21 02:42:52;;;;;;;5.90;4.00;;;;;;;;;;13024484;22;20186;-78
2021/03/21 02:47:59;;;;;;;5.97;4.37;;;;;;;;;;13017940;22;20174;-78
2021/03/21 02:53:04;;;;;;;7.47;4.60;;;;;;;;;;13034556;22;20209;-77
2021/03/21 02:58:07;;;;;;;7.03;5.07;;;;;;;;;;13038929;22;20477;-79
2021/03/21 03:03:11;;;;;;;7.10;5.37;;;;;;;;;;13035222;22;20514;-78
2021/03/21 03:08:14;;;;;;;9.43;5.83;;;;;;;;;;13034092;22;20174;-78
2021/03/21 03:13:18;;;;;;;8.73;6.13;;;;;;;;;;13034312;22;20550;-78
2021/03/21 03:18:27;;;;;;;9.83;6.50;;;;;;;;;;13014955;22;20269;-78
2021/03/21 03:23:32;;;;;;;10.13;7.17;;;;;;;;;;13035369;22;20647;-78
2021/03/21 03:28:37;;;;;;;11.27;6.97;;;;;;;;;;13038292;22;20310;-78
2021/03/21 03:33:40;;;;;;;11.97;7.80;;;;;;;;;;13012193;22;20536;-77
2021/03/21 03:38:42;;;;;;;11.43;7.67;;;;;;;;;;13036499;22;20703;-78
2021/03/21 03:43:50;;;;;;;12.23;8.03;;;;;;;;;;13038140;22;20548;-78
2021/03/21 03:48:57;;;;;;;12.00;8.37;;;;;;;;;;13032046;22;20641;-78
2021/03/21 03:54:19;;;;;;;14.00;8.43;;;;;;;;;;13036435;22;20206;-78
2021/03/21 03:59:40;;;;;;;13.20;7.63;;;;;;;;;;13037109;22;20173;-79
2021/03/21 04:04:50;;;;;;;14.93;8.17;;;;;;;;;;13022386;22;20746;-79
2021/03/21 04:09:53;;;;;;;15.57;8.13;;;;;;;;;;13031693;22;20174;-79
2021/03/21 04:14:58;;;;;;;13.90;7.47;;;;;;;;;;13035131;22;20209;-79
2021/03/21 04:20:03;;;;;;;11.73;6.67;;;;;;;;;;13031037;22;20176;-78
2021/03/21 04:25:08;;;;;;;11.47;5.70;;;;;;;;;;13033634;22;20510;-78
2021/03/21 04:30:12;;;;;;;11.00;5.33;;;;;;;;;;13033095;22;20161;-79
2021/03/21 04:35:16;;;;;;;10.07;4.43;;;;;;;;;;13015653;22;20201;-78
2021/03/21 04:40:19;;;;;;;8.37;3.90;;;;;;;;;;13009060;22;20192;-78
2021/03/21 04:45:23;;;;;;;11.07;3.70;;;;;;;;;;13033685;22;20495;-78
2021/03/21 04:50:26;;;;;;;9.87;3.53;;;;;;;;;;13014113;22;20599;-78
2021/03/21 04:55:31;;;;;;;8.47;3.23;;;;;;;;;;13028214;22;20212;-78
2021/03/21 05:00:35;;;;;;;7.60;2.80;;;;;;;;;;13015735;22;20182;-78
2021/03/21 05:05:42;;;;;;;10.40;2.90;;;;;;;;;;13034000;22;20206;-78
2021/03/21 05:10:45;;;;;;;9.77;3.23;;;;;;;;;;13007509;22;20249;-78
2021/03/21 05:15:48;;;;;;;8.17;2.87;;;;;;;;;;13031235;22;20213;-79
2021/03/21 05:20:57;;;;;;;9.27;2.43;;;;;;;;;;13034709;22;20214;-79
2021/03/21 05:26:01;;;;;;;9.47;2.43;;;;;;;;;;13030238;22;20702;-78
2021/03/21 05:31:03;;;;;;;11.43;2.63;;;;;;;;;;13036910;22;20193;-78
2021/03/21 05:36:09;;;;;;;9.97;2.70;;;;;;;;;;13032387;22;20232;-78
2021/03/21 05:41:27;;;;;;;12.43;2.33;;;;;;;;;;12994208;22;20177;-79
2021/03/21 05:46:46;;;;;;;8.70;2.33;;;;;;;;;;13035490;22;20197;-79
2021/03/21 05:51:58;;;;;;;9.23;2.60;;;;;;;;;;13034724;22;20189;-77
2021/03/21 05:57:24;;;;;;;9.40;2.33;;;;;;;;;;13033003;22;20220;-77
2021/03/21 06:02:49;;;;;;;9.67;2.30;;;;;;;;;;12889629;22;20193;-77
2021/03/21 06:07:58;;;;;;;8.20;2.33;;;;;;;;;;13032098;22;20231;-78
2021/03/21 06:13:05;;;;;;;13.10;2.40;;;;;;;;;;13032526;22;20203;-78
2021/03/21 06:18:20;;;;;;;12.63;2.53;;;;;;;;;;13007513;22;20177;-77
2021/03/21 06:23:40;;;;;;;12.17;2.60;;;;;;;;;;13029975;22;20199;-77
2021/03/21 06:29:00;;;;;;;14.93;2.50;;;;;;;;;;13035433;22;20177;-77
2021/03/21 06:34:26;;;;;;;10.40;2.60;;;;;;;;;;13031979;22;20232;-78
2021/03/21 06:39:44;;;;;;;13.30;2.90;;;;;;;;;;13032990;22;20658;-77
2021/03/21 06:44:55;;;;;;;12.67;2.53;;;;;;;;;;13036088;22;20200;-79
2021/03/21 06:50:02;;;;;;;9.80;2.57;;;;;;;;;;13035387;22;20166;-89
2021/03/21 06:55:07;;;;;;;10.07;2.43;;;;;;;;;;13036621;22;20689;-77
2021/03/21 07:00:27;;;;;;;15.47;3.03;;;;;;;;;;13037500;22;20572;-78
2021/03/21 07:05:46;;;;;;;11.43;2.57;;;;;;;;;;13038282;22;20673;-80
2021/03/21 07:11:00;;;;;;;12.80;2.83;;;;;;;;;;13025956;22;20177;-80
2021/03/21 07:16:13;;;;;;;8.13;2.30;;;;;;;;;;13029600;22;20265;-81
2021/03/21 07:21:40;;;;;;;12.23;2.30;;;;;;;;;;13001673;22;20586;-79
2021/03/21 07:26:59;;;;;;;8.57;2.40;;;;;;;;;;13030656;22;20245;-80
2021/03/21 07:32:13;;;;;;;9.43;2.47;;;;;;;;;;13027862;22;20403;-89
2021/03/21 07:37:17;;;;;;;11.00;2.80;;;;;;;;;;13029510;22;20170;-78
2021/03/21 07:42:25;;;;;;;12.30;2.33;;;;;;;;;;13030179;22;20200;-77
2021/03/21 07:47:41;;;;;;;15.00;3.03;;;;;;;;;;13032320;22;20180;-80
2021/03/21 07:52:51;;;;;;;12.67;2.33;;;;;;;;;;13031593;22;20205;-79
2021/03/21 07:57:59;;;;;;;14.03;2.67;;;;;;;;;;13032995;22;20166;-78
2021/03/21 08:03:17;;;;;;;9.03;2.33;;;;;;;;;;13007596;22;20207;-78
2021/03/21 08:08:22;;;;;;;13.70;2.70;;;;;;;;;;13025804;22;20257;-79
2021/03/21 08:13:38;;;;;;;13.23;2.83;;;;;;;;;;13031521;22;20209;-77
2021/03/21 08:18:43;;;;;;;24.67;3.43;;;;;;;;;;13031250;22;21100;-78
2021/03/21 08:23:47;;;;;;;14.70;3.33;;;;;;;;;;13032099;22;20651;-79
2021/03/21 08:29:04;;;;;;;15.83;3.23;;;;;;;;;;13033765;22;20647;-79
2021/03/21 08:34:31;;;;;;;14.07;3.20;;;;;;;;;;13033070;22;20212;-79
2021/03/21 08:39:36;;;;;;;16.73;3.23;;;;;;;;;;13028958;22;20174;-78
2021/03/21 08:44:40;;;;;;;18.27;3.43;;;;;;;;;;13031404;22;20603;-79
2021/03/21 08:49:45;;;;;;;19.00;3.40;;;;;;;;;;13011347;22;20169;-82
2021/03/21 08:54:51;;;;;;;14.53;3.50;;;;;;;;;;13031057;22;20197;-82
2021/03/21 08:59:53;;;;;;;15.37;3.40;;;;;;;;;;13027292;22;20173;-85
2021/03/21 09:05:05;;;;;;;18.53;3.70;;;;;;;;;;13015617;22;20269;-82
2021/03/21 09:10:16;;;;;;;22.37;4.57;;;;;;;;;;13033027;22;20645;-81
2021/03/21 09:15:22;;;;;;;15.20;3.90;;;;;;;;;;13029043;22;21322;-81
2021/03/21 09:20:25;;;;;;;24.13;5.13;;;;;;;;;;13034020;22;20224;-79
2021/03/21 09:25:29;;;;;;;31.93;6.37;;;;;;;;;;13002760;22;20248;-79
2021/03/21 09:30:40;;;;;;;23.50;6.03;;;;;;;;;;13033400;22;20543;-81
2021/03/21 09:35:45;;;;;;;22.27;4.83;;;;;;;;;;13004798;22;20280;-80
2021/03/21 09:40:50;;;;;;;23.17;4.67;;;;;;;;;;13031024;22;20190;-80
2021/03/21 09:45:53;;;;;;;26.67;4.97;;;;;;;;;;13032540;22;20260;-79
2021/03/21 09:50:59;;;;;;;28.87;6.37;;;;;;;;;;13035174;22;20165;-79
2021/03/21 09:56:06;;;;;;;24.77;5.60;;;;;;;;;;13027660;22;20231;-82
2021/03/21 10:01:15;;;;;;;29.07;5.77;;;;;;;;;;13031562;22;20556;-78
2021/03/21 10:06:20;;;;;;;21.43;5.17;;;;;;;;;;13026256;22;20198;-80
2021/03/21 10:11:26;;;;;;;21.73;4.67;;;;;;;;;;13028584;22;20174;-79
2021/03/21 10:16:31;;;;;;;28.50;5.30;;;;;;;;;;13021601;22;20591;-80
2021/03/21 10:21:36;;;;;;;33.70;4.83;;;;;;;;;;13026475;22;20182;-79
2021/03/21 10:26:58;;;;;;;21.93;4.60;;;;;;;;;;13033601;22;20581;-83
2021/03/21 10:32:14;;;;;;;23.27;4.63;;;;;;;;;;13034248;22;20205;-82
2021/03/21 10:37:51;;;;;;;19.43;5.00;;;;;;;;;;13034470;22;20178;-83
2021/03/21 10:42:53;;;;;;;27.43;4.87;;;;;;;;;;13013997;22;20235;-82
2021/03/21 10:47:55;;;;;;;17.90;4.10;;;;;;;;;;13034521;22;20300;-83
2021/03/21 10:53:14;;;;;;;20.20;4.27;;;;;;;;;;13031062;22;20670;-81
2021/03/21 10:58:37;;;;;;;19.77;4.10;;;;;;;;;;13037521;22;20522;-79
2021/03/21 11:03:38;;;;;;;22.40;4.50;;;;;;;;;;12954069;22;20197;-80
2021/03/21 11:08:42;;;;;;;21.80;4.60;;;;;;;;;;13031658;22;20172;-79
2021/03/21 11:13:45;;;;;;;24.77;4.57;;;;;;;;;;13033810;22;20212;-80
2021/03/21 11:18:48;;;;;;;20.80;4.37;;;;;;;;;;13030796;22;20189;-81
2021/03/21 11:23:53;;;;;;;23.83;4.67;;;;;;;;;;13011701;22;20338;-81
2021/03/21 11:29:08;;;;;;;22.20;4.13;;;;;;;;;;13032889;22;20633;-82
2021/03/21 11:34:16;;;;;;;25.60;4.30;;;;;;;;;;13032362;22;20201;-79
2021/03/21 11:39:22;;;;;;;22.00;4.90;;;;;;;;;;13028591;22;20212;-80
2021/03/21 11:44:28;;;;;;;20.30;4.10;;;;;;;;;;13037828;22;20851;-81
2021/03/21 11:49:33;;;;;;;22.10;4.77;;;;;;;;;;13031608;22;20252;-79
2021/03/21 11:54:37;;;;;;;25.53;4.63;;;;;;;;;;13030395;22;20659;-79
2021/03/21 11:59:43;;;;;;;23.47;4.63;;;;;;;;;;13032667;22;20182;-78
2021/03/21 12:04:50;;;;;;;21.17;4.87;;;;;;;;;;13035517;22;20194;-82
2021/03/21 12:10:05;;;;;;;23.97;4.93;;;;;;;;;;13025517;22;20177;-80
2021/03/21 12:15:13;;;;;;;22.87;4.57;;;;;;;;;;13040004;22;20704;-80
2021/03/21 12:20:30;;;;;;;25.53;4.63;;;;;;;;;;13033669;22;20181;-81
2021/03/21 12:25:35;;;;;;;26.33;4.80;;;;;;;;;;13032771;22;20523;-79
2021/03/21 12:30:40;;;;;;;22.87;4.97;;;;;;;;;;13008740;22;20252;-77
2021/03/21 12:35:43;;;;;;;21.57;4.40;;;;;;;;;;13027679;22;20721;-78
2021/03/21 12:40:46;;;;;;;21.83;4.97;;;;;;;;;;13031758;22;20193;-81
2021/03/21 12:45:56;;;;;;;23.07;5.07;;;;;;;;;;12982192;22;20180;-78
2021/03/21 12:50:58;;;;;;;23.67;5.00;;;;;;;;;;13013009;22;20180;-77
2021/03/21 12:56:03;;;;;;;23.43;4.73;;;;;;;;;;13005945;22;20205;-78
2021/03/21 13:01:05;;;;;;;21.23;4.77;;;;;;;;;;13033943;22;20212;-79
2021/03/21 13:06:08;;;;;;;25.63;4.90;;;;;;;;;;13033210;22;20194;-78
2021/03/21 13:11:11;;;;;;;17.73;4.30;;;;;;;;;;13031636;22;20184;-77
2021/03/21 13:16:15;;;;;;;25.87;4.63;;;;;;;;;;13008619;22;20216;-77
2021/03/21 13:21:17;;;;;;;19.13;4.40;;;;;;;;;;13030411;22;20181;-77
2021/03/21 13:26:19;;;;;;;20.27;4.37;;;;;;;;;;13008460;22;20174;-77
2021/03/21 13:31:21;;;;;;;22.13;4.50;;;;;;;;;;13032348;22;20182;-77
2021/03/21 13:36:23;;;;;;;21.93;4.53;;;;;;;;;;13010930;22;20277;-77
2021/03/21 13:41:26;;;;;;;29.10;5.30;;;;;;;;;;13006666;22;20185;-78
2021/03/21 13:46:28;;;;;;;25.87;5.50;;;;;;;;;;13011149;22;20537;-78
2021/03/21 13:51:30;;;;;;;25.63;5.30;;;;;;;;;;13009193;22;20243;-78
2021/03/21 13:56:33;;;;;;;20.83;4.73;;;;;;;;;;13028799;22;20209;-77
2021/03/21 14:01:35;;;;;;;27.33;5.30;;;;;;;;;;13034955;22;20513;-77
2021/03/21 14:06:37;;;;;;;27.17;4.70;;;;;;;;;;13037395;22;20192;-77
2021/03/21 14:11:40;;;;;;;18.93;4.60;;;;;;;;;;13010732;22;20174;-77
2021/03/21 14:16:41;;;;;;;23.80;4.80;;;;;;;;;;13038114;22;20205;-78
2021/03/21 14:21:43;;;;;;;23.47;5.53;;;;;;;;;;13016006;22;20177;-77
2021/03/21 14:26:46;;;;;;;21.47;4.43;;;;;;;;;;13030956;22;20181;-77
2021/03/21 14:31:48;;;;;;;15.03;3.70;;;;;;;;;;13016635;22;20170;-79
2021/03/21 14:36:50;;;;;;;23.50;5.03;;;;;;;;;;13033917;22;20223;-80
2021/03/21 14:41:53;;;;;;;23.17;4.40;;;;;;;;;;13033948;22;20244;-80
2021/03/21 14:46:55;;;;;;;19.50;4.40;;;;;;;;;;13034195;22;20178;-79
2021/03/21 14:51:57;;;;;;;23.13;4.37;;;;;;;;;;13037528;22;20178;-78
2021/03/21 14:57:00;;;;;;;21.33;3.80;;;;;;;;;;13030997;22;20208;-79
2021/03/21 15:02:02;;;;;;;18.13;3.97;;;;;;;;;;13038441;22;20919;-79
2021/03/21 15:07:04;;;;;;;14.67;4.33;;;;;;;;;;13033354;22;20574;-78
2021/03/21 15:12:08;;;;;;;21.37;4.10;;;;;;;;;;13014812;22;20584;-78
2021/03/21 15:17:10;;;;;;;24.83;4.70;;;;;;;;;;13016774;22;20206;-77
2021/03/21 15:22:13;;;;;;;20.80;4.40;;;;;;;;;;13035164;22;20173;-77
2021/03/21 15:27:16;;;;;;;24.07;5.07;;;;;;;;;;13033016;22;20174;-76
2021/03/21 15:32:17;;;;;;;15.13;3.93;;;;;;;;;;13036463;22;20174;-77
2021/03/21 15:37:19;;;;;;;18.90;3.90;;;;;;;;;;13029912;22;20680;-80
2021/03/21 15:42:22;;;;;;;18.47;4.23;;;;;;;;;;13034281;22;20256;-80
2021/03/21 15:47:25;;;;;;;22.53;4.20;;;;;;;;;;13030532;22;20174;-79
2021/03/21 15:52:27;;;;;;;18.17;4.10;;;;;;;;;;13009724;22;20185;-77
2021/03/21 15:57:32;;;;;;;20.03;3.90;;;;;;;;;;13010262;22;20256;-81
2021/03/21 16:02:34;;;;;;;20.57;3.93;;;;;;;;;;13034160;22;20193;-83
2021/03/21 16:07:37;;;;;;;23.53;4.30;;;;;;;;;;13032029;22;20178;-86
2021/03/21 16:12:40;;;;;;;14.43;3.53;;;;;;;;;;13031556;22;20174;-80
2021/03/21 16:17:44;;;;;;;21.47;4.67;;;;;;;;;;13033755;22;20181;-78
2021/03/21 16:22:47;;;;;;;20.60;4.20;;;;;;;;;;13030822;22;20389;-77
2021/03/21 16:27:51;;;;;;;24.00;4.83;;;;;;;;;;13013746;22;20743;-78
2021/03/21 16:32:54;;;;;;;14.43;3.87;;;;;;;;;;13033043;22;20184;-80
2021/03/21 16:37:58;;;;;;;19.53;4.30;;;;;;;;;;13011829;22;20177;-80
2021/03/21 16:43:01;;;;;;;17.87;4.50;;;;;;;;;;13012273;22;20563;-84
2021/03/21 16:48:04;;;;;;;21.53;5.37;;;;;;;;;;13034568;22;20174;-80
2021/03/21 16:53:07;;;;;;;21.37;5.57;;;;;;;;;;13015288;22;20201;-82
2021/03/21 16:58:10;;;;;;;22.07;5.30;;;;;;;;;;13032731;22;20253;-78
2021/03/21 17:03:12;;;;;;;20.50;5.60;;;;;;;;;;13019921;22;20199;-77
2021/03/21 17:08:14;;;;;;;23.92;6.30;;;;;;;;;;13018278;22;20428;-78
2021/03/21 17:13:19;;;;;;;26.83;6.17;;;;;;;;;;13026855;22;20555;-77
2021/03/21 17:18:22;;;;;;;24.30;6.37;;;;;;;;;;12998021;22;20265;-76
2021/03/21 17:23:32;;;;;;;18.70;4.40;;;;;;;;;;13023920;22;20224;-89
2021/03/21 17:28:36;;;;;;;20.63;4.20;;;;;;;;;;12999448;22;20647;-77
2021/03/21 17:33:39;;;;;;;20.10;4.03;;;;;;;;;;13000635;22;20454;-77
2021/03/21 17:38:41;;;;;;;18.40;3.77;;;;;;;;;;13018728;22;20236;-77
2021/03/21 17:43:43;;;;;;;19.00;3.60;;;;;;;;;;13003075;22;20212;-76
2021/03/21 17:48:45;;;;;;;19.27;4.00;;;;;;;;;;12998606;22;20173;-77
2021/03/21 17:53:48;;;;;;;20.00;4.47;;;;;;;;;;13025078;22;20207;-77
2021/03/21 17:58:52;;;;;;;15.67;3.70;;;;;;;;;;13003153;22;20185;-78
2021/03/21 18:03:54;;;;;;;17.97;3.97;;;;;;;;;;13027078;22;20201;-76
2021/03/21 18:08:57;;;;;;;27.43;4.23;;;;;;;;;;13024525;22;20182;-77
2021/03/21 18:14:00;;;;;;;21.80;4.23;;;;;;;;;;13027033;22;20232;-77
2021/03/21 18:19:02;;;;;;;16.63;3.97;;;;;;;;;;13009059;22;20514;-77
2021/03/21 18:24:04;;;;;;;15.77;3.97;;;;;;;;;;13019104;22;20196;-77
2021/03/21 18:29:07;;;;;;;17.13;3.70;;;;;;;;;;13024187;22;20181;-76
2021/03/21 18:34:09;;;;;;;18.23;3.53;;;;;;;;;;13020440;22;20670;-79
2021/03/21 18:39:11;;;;;;;15.87;3.87;;;;;;;;;;13023275;22;20178;-82
2021/03/21 18:44:14;;;;;;;15.63;3.60;;;;;;;;;;13023494;22;20851;-80
2021/03/21 18:49:16;;;;;;;17.33;4.50;;;;;;;;;;13008645;22;20177;-80
2021/03/21 18:54:21;;;;;;;20.73;4.87;;;;;;;;;;13023835;22;21081;-81
2021/03/21 18:59:23;;;;;;;17.47;4.53;;;;;;;;;;12981991;22;20189;-77
2021/03/21 19:04:25;;;;;;;19.63;5.03;;;;;;;;;;13026402;22;20208;-80
2021/03/21 19:09:28;;;;;;;19.50;4.30;;;;;;;;;;13024131;22;20180;-77
2021/03/21 19:14:33;;;;;;;19.20;3.97;;;;;;;;;;13008338;22;20686;-79
2021/03/21 19:19:35;;;;;;;23.33;5.10;;;;;;;;;;13003484;22;20172;-78
2021/03/21 19:24:39;;;;;;;20.73;4.90;;;;;;;;;;13000682;22;20300;-76
2021/03/21 19:29:41;;;;;;;21.67;4.57;;;;;;;;;;13005815;22;20185;-78
2021/03/21 19:34:43;;;;;;;22.20;5.27;;;;;;;;;;13027308;22;20216;-79
2021/03/21 19:39:45;;;;;;;25.87;6.60;;;;;;;;;;13003725;22;20174;-79
2021/03/21 19:44:47;;;;;;;20.43;5.60;;;;;;;;;;13032417;22;20500;-79
2021/03/21 19:49:49;;;;;;;30.37;5.50;;;;;;;;;;13029261;22;20178;-80
2021/03/21 19:54:52;;;;;;;27.30;5.07;;;;;;;;;;13031382;22;20209;-79
2021/03/21 19:59:53;;;;;;;23.13;4.60;;;;;;;;;;13006351;22;20174;-78
2021/03/21 20:04:55;;;;;;;25.23;5.67;;;;;;;;;;13004649;22;20721;-79
2021/03/21 20:09:58;;;;;;;22.13;5.73;;;;;;;;;;13003745;22;20253;-79
2021/03/21 20:15:01;;;;;;;19.07;4.93;;;;;;;;;;13005824;22;20706;-79
2021/03/21 20:20:04;;;;;;;26.43;5.17;;;;;;;;;;13005964;22;20174;-79
2021/03/21 20:25:08;;;;;;;27.67;5.00;;;;;;;;;;13024342;22;20173;-78
2021/03/21 20:30:09;;;;;;;27.00;5.67;;;;;;;;;;13007858;22;20180;-79
2021/03/21 20:35:12;;;;;;;15.73;4.13;;;;;;;;;;13008538;22;20447;-79
2021/03/21 20:40:15;;;;;;;22.73;5.40;;;;;;;;;;13024616;22;20212;-78
2021/03/21 20:45:17;;;;;;;22.50;4.37;;;;;;;;;;13002534;22;20483;-78
2021/03/21 20:50:22;;;;;;;21.03;5.03;;;;;;;;;;13007035;22;20174;-77
2021/03/21 20:55:27;;;;;;;22.27;4.40;;;;;;;;;;13003732;22;20236;-77
2021/03/21 21:00:31;;;;;;;30.27;4.33;;;;;;;;;;13032523;22;20188;-75
2021/03/21 21:05:33;;;;;;;19.23;4.00;;;;;;;;;;13032730;22;20200;-76
2021/03/21 21:10:36;;;;;;;19.23;4.50;;;;;;;;;;13031549;22;20512;-76
2021/03/21 21:15:41;;;;;;;32.70;4.97;;;;;;;;;;13032657;22;20211;-76
2021/03/21 21:20:44;;;;;;;20.10;3.97;;;;;;;;;;13011473;22;20249;-76
2021/03/21 21:25:47;;;;;;;11.10;3.50;;;;;;;;;;13010358;22;20487;-75
2021/03/21 21:30:48;;;;;;;25.50;4.97;;;;;;;;;;13032851;22;20187;-75
2021/03/21 21:35:52;;;;;;;17.67;3.80;;;;;;;;;;13032415;22;20282;-75
2021/03/21 21:40:54;;;;;;;20.83;3.90;;;;;;;;;;13010278;22;20209;-76
2021/03/21 21:46:14;;;;;;;17.50;3.70;;;;;;;;;;13030911;22;20173;-77
2021/03/21 21:51:16;;;;;;;21.40;4.50;;;;;;;;;;13033238;22;20437;-78
2021/03/21 21:56:18;;;;;;;17.17;4.03;;;;;;;;;;13028476;22;20205;-78
2021/03/21 22:01:20;;;;;;;20.30;4.10;;;;;;;;;;13033194;22;20824;-78
2021/03/21 22:06:22;;;;;;;19.77;4.53;;;;;;;;;;13033565;22;20170;-78
2021/03/21 22:11:25;;;;;;;18.23;4.33;;;;;;;;;;13030801;22;20641;-78
2021/03/21 22:16:30;;;;;;;18.80;4.20;;;;;;;;;;13011163;22;20310;-78
2021/03/21 22:21:32;;;;;;;22.47;4.40;;;;;;;;;;13013959;22;20181;-77
2021/03/21 22:26:35;;;;;;;15.13;4.00;;;;;;;;;;13032079;22;20174;-79
2021/03/21 22:31:36;;;;;;;22.10;4.80;;;;;;;;;;13025405;22;20180;-78
2021/03/21 22:36:40;;;;;;;19.57;4.80;;;;;;;;;;13015299;22;20201;-80
2021/03/21 22:41:42;;;;;;;17.60;4.83;;;;;;;;;;13030740;22;20193;-78
2021/03/21 22:46:52;;;;;;;18.33;4.60;;;;;;;;;;13018113;22;20182;-78
2021/03/21 22:51:55;;;;;;;15.60;4.30;;;;;;;;;;13038729;22;20503;-77
2021/03/21 22:56:58;;;;;;;22.00;5.00;;;;;;;;;;13033352;22;20228;-77
2021/03/21 23:01:59;;;;;;;19.20;4.57;;;;;;;;;;13040755;22;20725;-78
2021/03/21 23:07:02;;;;;;;14.90;4.20;;;;;;;;;;13033337;22;20235;-79
2021/03/21 23:12:06;;;;;;;18.07;4.60;;;;;;;;;;13016759;22;20184;-80
2021/03/21 23:17:18;;;;;;;16.47;4.67;;;;;;;;;;13035878;22;20661;-79
2021/03/21 23:22:20;;;;;;;23.40;5.20;;;;;;;;;;13038069;22;20234;-79
2021/03/21 23:27:23;;;;;;;19.83;5.27;;;;;;;;;;13039991;22;20182;-79
2021/03/21 23:32:25;;;;;;;19.60;5.20;;;;;;;;;;13036543;22;20185;-79
2021/03/21 23:37:27;;;;;;;28.47;5.70;;;;;;;;;;13013735;22;20240;-81
2021/03/21 23:42:30;;;;;;;20.43;4.97;;;;;;;;;;13035339;22;20702;-79
2021/03/21 23:47:40;;;;;;;29.47;6.30;;;;;;;;;;13036066;22;20958;-79
2021/03/21 23:52:42;;;;;;;27.23;6.20;;;;;;;;;;13031405;22;20226;-79
2021/03/21 23:57:46;;;;;;;18.60;5.70;;;;;;;;;;13036652;22;20271;-79
